sensor_id;sensor_type;location;lat;lon;timestamp;P1;durP1;ratioP1;P2;durP2;ratioP2
27744;SDS011;61387;48.112;8.616;2023-11-19T00:00:19;8.70;;;6.07;;
27744;SDS011;61387;48.112;8.616;2023-11-19T00:02:45;8.10;;;5.30;;
27744;SDS011;61387;48.112;8.616;2023-11-19T00:05:12;7.83;;;5.40;;
27744;SDS011;61387;48.112;8.616;2023-11-19T00:07:38;7.70;;;5.70;;
27744;SDS011;61387;48.112;8.616;2023-11-19T00:10:08;8.03;;;5.50;;
27744;SDS011;61387;48.112;8.616;2023-11-19T00:12:35;8.13;;;5.40;;
27744;SDS011;61387;48.112;8.616;2023-11-19T00:15:01;7.30;;;4.80;;
27744;SDS011;61387;48.112;8.616;2023-11-19T00:17:27;7.13;;;5.00;;
27744;SDS011;61387;48.112;8.616;2023-11-19T00:19:53;8.23;;;5.40;;
27744;SDS011;61387;48.112;8.616;2023-11-19T00:22:19;7.77;;;4.93;;
27744;SDS011;61387;48.112;8.616;2023-11-19T00:24:46;6.80;;;4.37;;
27744;SDS011;61387;48.112;8.616;2023-11-19T00:27:12;7.53;;;4.70;;
27744;SDS011;61387;48.112;8.616;2023-11-19T00:29:37;6.03;;;4.53;;
27744;SDS011;61387;48.112;8.616;2023-11-19T00:32:04;7.57;;;5.07;;
27744;SDS011;61387;48.112;8.616;2023-11-19T00:34:30;7.50;;;5.17;;
27744;SDS011;61387;48.112;8.616;2023-11-19T00:36:56;7.40;;;5.10;;
27744;SDS011;61387;48.112;8.616;2023-11-19T00:39:22;7.20;;;5.00;;
27744;SDS011;61387;48.112;8.616;2023-11-19T00:41:48;7.63;;;5.63;;
27744;SDS011;61387;48.112;8.616;2023-11-19T00:44:14;8.70;;;5.27;;
27744;SDS011;61387;48.112;8.616;2023-11-19T00:46:40;7.83;;;5.13;;
27744;SDS011;61387;48.112;8.616;2023-11-19T00:49:05;8.93;;;5.07;;
27744;SDS011;61387;48.112;8.616;2023-11-19T00:51:31;7.37;;;4.97;;
27744;SDS011;61387;48.112;8.616;2023-11-19T00:53:57;7.40;;;4.87;;
27744;SDS011;61387;48.112;8.616;2023-11-19T00:56:24;6.03;;;4.23;;
27744;SDS011;61387;48.112;8.616;2023-11-19T00:58:50;5.57;;;3.90;;
27744;SDS011;61387;48.112;8.616;2023-11-19T01:01:16;6.20;;;4.03;;
27744;SDS011;61387;48.112;8.616;2023-11-19T01:03:42;6.67;;;4.00;;
27744;SDS011;61387;48.112;8.616;2023-11-19T01:06:08;7.03;;;4.00;;
27744;SDS011;61387;48.112;8.616;2023-11-19T01:08:33;14.48;;;4.30;;
27744;SDS011;61387;48.112;8.616;2023-11-19T01:11:00;6.43;;;4.10;;
27744;SDS011;61387;48.112;8.616;2023-11-19T01:13:27;6.37;;;3.67;;
27744;SDS011;61387;48.112;8.616;2023-11-19T01:15:53;6.40;;;4.10;;
27744;SDS011;61387;48.112;8.616;2023-11-19T01:18:18;6.57;;;4.10;;
27744;SDS011;61387;48.112;8.616;2023-11-19T01:20:44;7.10;;;4.80;;
27744;SDS011;61387;48.112;8.616;2023-11-19T01:23:10;10.73;;;5.23;;
27744;SDS011;61387;48.112;8.616;2023-11-19T01:25:36;49.63;;;8.67;;
27744;SDS011;61387;48.112;8.616;2023-11-19T01:28:03;10.47;;;4.47;;
27744;SDS011;61387;48.112;8.616;2023-11-19T01:30:29;4.97;;;3.23;;
27744;SDS011;61387;48.112;8.616;2023-11-19T01:32:55;5.23;;;3.50;;
27744;SDS011;61387;48.112;8.616;2023-11-19T01:35:21;4.80;;;3.13;;
27744;SDS011;61387;48.112;8.616;2023-11-19T01:37:48;4.97;;;3.67;;
27744;SDS011;61387;48.112;8.616;2023-11-19T01:40:19;6.70;;;4.20;;
27744;SDS011;61387;48.112;8.616;2023-11-19T01:42:45;5.13;;;3.50;;
27744;SDS011;61387;48.112;8.616;2023-11-19T01:45:11;5.50;;;3.50;;
27744;SDS011;61387;48.112;8.616;2023-11-19T01:47:53;5.63;;;3.37;;
27744;SDS011;61387;48.112;8.616;2023-11-19T01:50:20;4.63;;;3.20;;
27744;SDS011;61387;48.112;8.616;2023-11-19T01:52:46;5.70;;;3.90;;
27744;SDS011;61387;48.112;8.616;2023-11-19T01:55:12;5.63;;;3.40;;
27744;SDS011;61387;48.112;8.616;2023-11-19T01:57:38;6.00;;;3.20;;
27744;SDS011;61387;48.112;8.616;2023-11-19T02:00:06;5.97;;;3.50;;
27744;SDS011;61387;48.112;8.616;2023-11-19T02:02:36;4.70;;;3.13;;
27744;SDS011;61387;48.112;8.616;2023-11-19T02:05:02;6.87;;;3.63;;
27744;SDS011;61387;48.112;8.616;2023-11-19T02:07:28;6.97;;;3.70;;
27744;SDS011;61387;48.112;8.616;2023-11-19T02:09:57;6.20;;;4.30;;
27744;SDS011;61387;48.112;8.616;2023-11-19T02:12:25;5.87;;;3.50;;
27744;SDS011;61387;48.112;8.616;2023-11-19T02:14:53;6.07;;;4.20;;
27744;SDS011;61387;48.112;8.616;2023-11-19T02:17:29;5.53;;;3.90;;
27744;SDS011;61387;48.112;8.616;2023-11-19T02:19:59;7.00;;;4.10;;
27744;SDS011;61387;48.112;8.616;2023-11-19T02:22:25;5.27;;;3.40;;
27744;SDS011;61387;48.112;8.616;2023-11-19T02:24:51;5.03;;;3.60;;
27744;SDS011;61387;48.112;8.616;2023-11-19T02:27:27;10.13;;;4.67;;
27744;SDS011;61387;48.112;8.616;2023-11-19T02:30:14;6.50;;;4.40;;
27744;SDS011;61387;48.112;8.616;2023-11-19T02:32:43;5.60;;;3.67;;
27744;SDS011;61387;48.112;8.616;2023-11-19T02:35:09;7.40;;;3.80;;
27744;SDS011;61387;48.112;8.616;2023-11-19T02:37:35;8.10;;;3.90;;
27744;SDS011;61387;48.112;8.616;2023-11-19T02:40:01;7.03;;;4.03;;
27744;SDS011;61387;48.112;8.616;2023-11-19T02:42:28;6.50;;;4.50;;
27744;SDS011;61387;48.112;8.616;2023-11-19T02:44:54;9.00;;;5.13;;
27744;SDS011;61387;48.112;8.616;2023-11-19T02:47:20;7.83;;;4.67;;
27744;SDS011;61387;48.112;8.616;2023-11-19T02:49:48;8.20;;;4.47;;
27744;SDS011;61387;48.112;8.616;2023-11-19T02:52:15;7.57;;;4.07;;
27744;SDS011;61387;48.112;8.616;2023-11-19T02:54:41;6.97;;;4.00;;
27744;SDS011;61387;48.112;8.616;2023-11-19T02:57:07;6.57;;;3.60;;
27744;SDS011;61387;48.112;8.616;2023-11-19T02:59:38;6.47;;;3.10;;
27744;SDS011;61387;48.112;8.616;2023-11-19T03:02:06;3.63;;;2.50;;
27744;SDS011;61387;48.112;8.616;2023-11-19T03:04:36;5.40;;;2.60;;
27744;SDS011;61387;48.112;8.616;2023-11-19T03:07:04;4.03;;;2.43;;
27744;SDS011;61387;48.112;8.616;2023-11-19T03:09:30;4.83;;;2.40;;
27744;SDS011;61387;48.112;8.616;2023-11-19T03:11:56;4.07;;;2.90;;
27744;SDS011;61387;48.112;8.616;2023-11-19T03:14:22;4.83;;;3.00;;
27744;SDS011;61387;48.112;8.616;2023-11-19T03:16:48;7.33;;;3.60;;
27744;SDS011;61387;48.112;8.616;2023-11-19T03:19:14;3.00;;;2.40;;
27744;SDS011;61387;48.112;8.616;2023-11-19T03:21:40;3.60;;;2.50;;
27744;SDS011;61387;48.112;8.616;2023-11-19T03:24:06;4.23;;;2.60;;
27744;SDS011;61387;48.112;8.616;2023-11-19T03:26:33;4.73;;;2.73;;
27744;SDS011;61387;48.112;8.616;2023-11-19T03:28:59;6.27;;;2.40;;
27744;SDS011;61387;48.112;8.616;2023-11-19T03:31:25;4.53;;;2.40;;
27744;SDS011;61387;48.112;8.616;2023-11-19T03:33:51;3.67;;;2.13;;
27744;SDS011;61387;48.112;8.616;2023-11-19T03:36:17;1.93;;;1.47;;
27744;SDS011;61387;48.112;8.616;2023-11-19T03:38:43;2.97;;;1.60;;
27744;SDS011;61387;48.112;8.616;2023-11-19T03:41:10;2.80;;;1.03;;
27744;SDS011;61387;48.112;8.616;2023-11-19T03:43:36;0.90;;;0.70;;
27744;SDS011;61387;48.112;8.616;2023-11-19T03:46:02;2.67;;;0.63;;
27744;SDS011;61387;48.112;8.616;2023-11-19T03:48:30;0.70;;;0.30;;
27744;SDS011;61387;48.112;8.616;2023-11-19T03:50:56;0.93;;;0.40;;
27744;SDS011;61387;48.112;8.616;2023-11-19T03:53:22;0.40;;;0.40;;
27744;SDS011;61387;48.112;8.616;2023-11-19T03:55:49;0.63;;;0.30;;
27744;SDS011;61387;48.112;8.616;2023-11-19T03:58:15;0.93;;;0.20;;
27744;SDS011;61387;48.112;8.616;2023-11-19T04:00:41;0.30;;;0.20;;
27744;SDS011;61387;48.112;8.616;2023-11-19T04:03:07;0.60;;;0.33;;
27744;SDS011;61387;48.112;8.616;2023-11-19T04:05:33;0.13;;;0.13;;
27744;SDS011;61387;48.112;8.616;2023-11-19T04:07:59;0.10;;;0.10;;
27744;SDS011;61387;48.112;8.616;2023-11-19T04:10:25;2.23;;;0.37;;
27744;SDS011;61387;48.112;8.616;2023-11-19T04:12:52;0.07;;;0.07;;
27744;SDS011;61387;48.112;8.616;2023-11-19T04:15:18;0.40;;;0.30;;
27744;SDS011;61387;48.112;8.616;2023-11-19T04:17:44;0.83;;;0.20;;
27744;SDS011;61387;48.112;8.616;2023-11-19T04:20:10;0.20;;;0.20;;
27744;SDS011;61387;48.112;8.616;2023-11-19T04:22:38;0.57;;;0.10;;
27744;SDS011;61387;48.112;8.616;2023-11-19T04:25:04;0.67;;;0.20;;
27744;SDS011;61387;48.112;8.616;2023-11-19T04:27:30;0.67;;;0.30;;
27744;SDS011;61387;48.112;8.616;2023-11-19T04:29:56;0.23;;;0.20;;
27744;SDS011;61387;48.112;8.616;2023-11-19T04:32:22;0.10;;;0.10;;
27744;SDS011;61387;48.112;8.616;2023-11-19T04:34:47;0.17;;;0.10;;
27744;SDS011;61387;48.112;8.616;2023-11-19T04:37:13;1.03;;;0.20;;
27744;SDS011;61387;48.112;8.616;2023-11-19T04:39:39;0.20;;;0.20;;
27744;SDS011;61387;48.112;8.616;2023-11-19T04:42:05;0.13;;;0.10;;
27744;SDS011;61387;48.112;8.616;2023-11-19T04:44:31;0.40;;;0.27;;
27744;SDS011;61387;48.112;8.616;2023-11-19T04:46:57;0.13;;;0.10;;
27744;SDS011;61387;48.112;8.616;2023-11-19T04:49:23;0.47;;;0.47;;
27744;SDS011;61387;48.112;8.616;2023-11-19T04:51:49;0.40;;;0.30;;
27744;SDS011;61387;48.112;8.616;2023-11-19T04:54:16;1.10;;;0.80;;
27744;SDS011;61387;48.112;8.616;2023-11-19T04:56:44;4.97;;;2.03;;
27744;SDS011;61387;48.112;8.616;2023-11-19T04:59:11;5.63;;;3.27;;
27744;SDS011;61387;48.112;8.616;2023-11-19T05:01:37;0.63;;;0.60;;
27744;SDS011;61387;48.112;8.616;2023-11-19T05:04:03;3.07;;;0.50;;
27744;SDS011;61387;48.112;8.616;2023-11-19T05:06:31;0.33;;;0.30;;
27744;SDS011;61387;48.112;8.616;2023-11-19T05:09:00;0.47;;;0.27;;
27744;SDS011;61387;48.112;8.616;2023-11-19T05:11:26;0.70;;;0.20;;
27744;SDS011;61387;48.112;8.616;2023-11-19T05:13:53;0.40;;;0.40;;
27744;SDS011;61387;48.112;8.616;2023-11-19T05:16:19;0.57;;;0.30;;
27744;SDS011;61387;48.112;8.616;2023-11-19T05:18:46;1.43;;;0.70;;
27744;SDS011;61387;48.112;8.616;2023-11-19T05:21:12;1.33;;;0.90;;
27744;SDS011;61387;48.112;8.616;2023-11-19T05:23:38;0.50;;;0.50;;
27744;SDS011;61387;48.112;8.616;2023-11-19T05:26:04;1.70;;;0.40;;
27744;SDS011;61387;48.112;8.616;2023-11-19T05:28:30;1.50;;;0.40;;
27744;SDS011;61387;48.112;8.616;2023-11-19T05:30:57;1.83;;;0.50;;
27744;SDS011;61387;48.112;8.616;2023-11-19T05:33:22;6.80;;;3.10;;
27744;SDS011;61387;48.112;8.616;2023-11-19T05:35:48;3.47;;;1.20;;
27744;SDS011;61387;48.112;8.616;2023-11-19T05:38:14;1.17;;;0.20;;
27744;SDS011;61387;48.112;8.616;2023-11-19T05:40:41;0.60;;;0.43;;
27744;SDS011;61387;48.112;8.616;2023-11-19T05:43:06;0.40;;;0.20;;
27744;SDS011;61387;48.112;8.616;2023-11-19T05:45:32;0.33;;;0.30;;
27744;SDS011;61387;48.112;8.616;2023-11-19T05:47:58;0.30;;;0.30;;
27744;SDS011;61387;48.112;8.616;2023-11-19T05:50:24;0.20;;;0.20;;
27744;SDS011;61387;48.112;8.616;2023-11-19T05:52:50;0.43;;;0.20;;
27744;SDS011;61387;48.112;8.616;2023-11-19T05:55:18;0.93;;;0.30;;
27744;SDS011;61387;48.112;8.616;2023-11-19T05:57:44;0.40;;;0.10;;
27744;SDS011;61387;48.112;8.616;2023-11-19T06:00:10;0.43;;;0.27;;
27744;SDS011;61387;48.112;8.616;2023-11-19T06:02:38;0.33;;;0.20;;
27744;SDS011;61387;48.112;8.616;2023-11-19T06:05:04;0.60;;;0.40;;
27744;SDS011;61387;48.112;8.616;2023-11-19T06:07:31;0.53;;;0.40;;
27744;SDS011;61387;48.112;8.616;2023-11-19T06:09:57;0.40;;;0.30;;
27744;SDS011;61387;48.112;8.616;2023-11-19T06:12:23;1.07;;;0.33;;
27744;SDS011;61387;48.112;8.616;2023-11-19T06:14:49;1.03;;;0.30;;
27744;SDS011;61387;48.112;8.616;2023-11-19T06:17:15;0.70;;;0.40;;
27744;SDS011;61387;48.112;8.616;2023-11-19T06:19:41;0.10;;;0.10;;
27744;SDS011;61387;48.112;8.616;2023-11-19T06:22:06;0.20;;;0.20;;
27744;SDS011;61387;48.112;8.616;2023-11-19T06:24:32;0.20;;;0.20;;
27744;SDS011;61387;48.112;8.616;2023-11-19T06:26:58;1.00;;;0.23;;
27744;SDS011;61387;48.112;8.616;2023-11-19T06:29:24;2.40;;;1.27;;
27744;SDS011;61387;48.112;8.616;2023-11-19T06:31:50;0.93;;;0.23;;
27744;SDS011;61387;48.112;8.616;2023-11-19T06:34:16;0.57;;;0.40;;
27744;SDS011;61387;48.112;8.616;2023-11-19T06:36:42;1.03;;;0.50;;
27744;SDS011;61387;48.112;8.616;2023-11-19T06:39:08;0.77;;;0.63;;
27744;SDS011;61387;48.112;8.616;2023-11-19T06:41:35;0.80;;;0.47;;
27744;SDS011;61387;48.112;8.616;2023-11-19T06:44:03;4.33;;;0.60;;
27744;SDS011;61387;48.112;8.616;2023-11-19T06:46:29;3.00;;;1.00;;
27744;SDS011;61387;48.112;8.616;2023-11-19T06:48:56;0.30;;;0.30;;
27744;SDS011;61387;48.112;8.616;2023-11-19T06:51:22;0.60;;;0.37;;
27744;SDS011;61387;48.112;8.616;2023-11-19T06:53:49;0.73;;;0.30;;
27744;SDS011;61387;48.112;8.616;2023-11-19T06:56:21;0.60;;;0.20;;
27744;SDS011;61387;48.112;8.616;2023-11-19T06:58:48;0.20;;;0.20;;
27744;SDS011;61387;48.112;8.616;2023-11-19T07:01:14;0.20;;;0.10;;
27744;SDS011;61387;48.112;8.616;2023-11-19T07:03:40;0.83;;;0.20;;
27744;SDS011;61387;48.112;8.616;2023-11-19T07:06:06;0.67;;;0.20;;
27744;SDS011;61387;48.112;8.616;2023-11-19T07:08:33;0.73;;;0.20;;
27744;SDS011;61387;48.112;8.616;2023-11-19T07:10:59;0.77;;;0.30;;
27744;SDS011;61387;48.112;8.616;2023-11-19T07:13:25;1.13;;;0.30;;
27744;SDS011;61387;48.112;8.616;2023-11-19T07:15:53;0.73;;;0.30;;
27744;SDS011;61387;48.112;8.616;2023-11-19T07:18:18;1.53;;;0.40;;
27744;SDS011;61387;48.112;8.616;2023-11-19T07:20:46;0.30;;;0.20;;
27744;SDS011;61387;48.112;8.616;2023-11-19T07:23:12;0.40;;;0.40;;
27744;SDS011;61387;48.112;8.616;2023-11-19T07:25:41;1.17;;;0.40;;
27744;SDS011;61387;48.112;8.616;2023-11-19T07:28:08;0.10;;;0.10;;
27744;SDS011;61387;48.112;8.616;2023-11-19T07:30:34;0.90;;;0.70;;
27744;SDS011;61387;48.112;8.616;2023-11-19T07:33:01;0.30;;;0.30;;
27744;SDS011;61387;48.112;8.616;2023-11-19T07:35:29;0.43;;;0.20;;
27744;SDS011;61387;48.112;8.616;2023-11-19T07:37:55;1.57;;;0.57;;
27744;SDS011;61387;48.112;8.616;2023-11-19T07:40:22;3.10;;;1.40;;
27744;SDS011;61387;48.112;8.616;2023-11-19T07:42:48;2.00;;;1.03;;
27744;SDS011;61387;48.112;8.616;2023-11-19T07:45:14;2.30;;;1.50;;
27744;SDS011;61387;48.112;8.616;2023-11-19T07:47:40;1.90;;;1.10;;
27744;SDS011;61387;48.112;8.616;2023-11-19T07:50:09;2.93;;;1.60;;
27744;SDS011;61387;48.112;8.616;2023-11-19T07:52:35;0.97;;;0.73;;
27744;SDS011;61387;48.112;8.616;2023-11-19T07:55:01;1.93;;;0.90;;
27744;SDS011;61387;48.112;8.616;2023-11-19T07:57:27;2.33;;;1.30;;
27744;SDS011;61387;48.112;8.616;2023-11-19T07:59:55;1.10;;;1.00;;
27744;SDS011;61387;48.112;8.616;2023-11-19T08:02:22;1.70;;;0.90;;
27744;SDS011;61387;48.112;8.616;2023-11-19T08:04:49;3.03;;;1.37;;
27744;SDS011;61387;48.112;8.616;2023-11-19T08:07:20;2.63;;;1.80;;
27744;SDS011;61387;48.112;8.616;2023-11-19T08:09:46;1.50;;;1.17;;
27744;SDS011;61387;48.112;8.616;2023-11-19T08:12:13;1.33;;;0.97;;
27744;SDS011;61387;48.112;8.616;2023-11-19T08:14:42;1.47;;;1.30;;
27744;SDS011;61387;48.112;8.616;2023-11-19T08:17:09;2.13;;;1.60;;
27744;SDS011;61387;48.112;8.616;2023-11-19T08:19:35;1.17;;;1.07;;
27744;SDS011;61387;48.112;8.616;2023-11-19T08:22:01;0.73;;;0.60;;
27744;SDS011;61387;48.112;8.616;2023-11-19T08:24:27;0.80;;;0.40;;
27744;SDS011;61387;48.112;8.616;2023-11-19T08:26:53;1.30;;;0.90;;
27744;SDS011;61387;48.112;8.616;2023-11-19T08:29:20;2.60;;;1.07;;
27744;SDS011;61387;48.112;8.616;2023-11-19T08:31:46;2.00;;;0.73;;
27744;SDS011;61387;48.112;8.616;2023-11-19T08:34:12;1.97;;;0.63;;
27744;SDS011;61387;48.112;8.616;2023-11-19T08:36:38;0.50;;;0.50;;
27744;SDS011;61387;48.112;8.616;2023-11-19T08:39:04;1.90;;;0.40;;
27744;SDS011;61387;48.112;8.616;2023-11-19T08:41:30;0.60;;;0.40;;
27744;SDS011;61387;48.112;8.616;2023-11-19T08:43:57;0.40;;;0.40;;
27744;SDS011;61387;48.112;8.616;2023-11-19T08:46:22;0.30;;;0.30;;
27744;SDS011;61387;48.112;8.616;2023-11-19T08:48:49;0.63;;;0.40;;
27744;SDS011;61387;48.112;8.616;2023-11-19T08:51:15;0.40;;;0.30;;
27744;SDS011;61387;48.112;8.616;2023-11-19T08:53:41;0.73;;;0.40;;
27744;SDS011;61387;48.112;8.616;2023-11-19T08:56:07;0.70;;;0.40;;
27744;SDS011;61387;48.112;8.616;2023-11-19T08:58:32;1.40;;;0.70;;
27744;SDS011;61387;48.112;8.616;2023-11-19T09:00:58;2.27;;;1.13;;
27744;SDS011;61387;48.112;8.616;2023-11-19T09:03:24;3.40;;;1.50;;
27744;SDS011;61387;48.112;8.616;2023-11-19T09:05:54;2.60;;;1.67;;
27744;SDS011;61387;48.112;8.616;2023-11-19T09:08:21;1.20;;;0.90;;
27744;SDS011;61387;48.112;8.616;2023-11-19T09:10:47;1.83;;;1.10;;
27744;SDS011;61387;48.112;8.616;2023-11-19T09:13:13;1.93;;;0.60;;
27744;SDS011;61387;48.112;8.616;2023-11-19T09:15:39;1.80;;;0.77;;
27744;SDS011;61387;48.112;8.616;2023-11-19T09:18:07;2.50;;;0.90;;
27744;SDS011;61387;48.112;8.616;2023-11-19T09:20:33;1.47;;;0.97;;
27744;SDS011;61387;48.112;8.616;2023-11-19T09:23:03;1.67;;;0.90;;
27744;SDS011;61387;48.112;8.616;2023-11-19T09:25:30;3.07;;;1.47;;
27744;SDS011;61387;48.112;8.616;2023-11-19T09:27:55;2.57;;;1.43;;
27744;SDS011;61387;48.112;8.616;2023-11-19T09:30:21;3.47;;;2.00;;
27744;SDS011;61387;48.112;8.616;2023-11-19T09:32:48;1.40;;;0.90;;
27744;SDS011;61387;48.112;8.616;2023-11-19T09:35:14;2.73;;;1.70;;
27744;SDS011;61387;48.112;8.616;2023-11-19T09:37:41;3.70;;;2.10;;
27744;SDS011;61387;48.112;8.616;2023-11-19T09:40:07;1.90;;;1.20;;
27744;SDS011;61387;48.112;8.616;2023-11-19T09:42:43;2.00;;;1.20;;
27744;SDS011;61387;48.112;8.616;2023-11-19T09:45:13;1.70;;;1.17;;
27744;SDS011;61387;48.112;8.616;2023-11-19T09:47:42;2.97;;;1.20;;
27744;SDS011;61387;48.112;8.616;2023-11-19T09:50:10;1.43;;;1.20;;
27744;SDS011;61387;48.112;8.616;2023-11-19T09:52:41;2.57;;;1.57;;
27744;SDS011;61387;48.112;8.616;2023-11-19T09:55:08;3.87;;;1.87;;
27744;SDS011;61387;48.112;8.616;2023-11-19T09:57:33;2.10;;;1.00;;
27744;SDS011;61387;48.112;8.616;2023-11-19T10:00:02;1.30;;;1.07;;
27744;SDS011;61387;48.112;8.616;2023-11-19T10:02:30;1.20;;;0.90;;
27744;SDS011;61387;48.112;8.616;2023-11-19T10:04:58;0.93;;;0.70;;
27744;SDS011;61387;48.112;8.616;2023-11-19T10:07:27;3.13;;;1.60;;
27744;SDS011;61387;48.112;8.616;2023-11-19T10:09:53;2.03;;;0.87;;
27744;SDS011;61387;48.112;8.616;2023-11-19T10:12:19;0.97;;;0.73;;
27744;SDS011;61387;48.112;8.616;2023-11-19T10:14:45;0.60;;;0.50;;
27744;SDS011;61387;48.112;8.616;2023-11-19T10:17:12;1.20;;;0.90;;
27744;SDS011;61387;48.112;8.616;2023-11-19T10:19:40;2.23;;;0.90;;
27744;SDS011;61387;48.112;8.616;2023-11-19T10:22:06;1.00;;;0.53;;
27744;SDS011;61387;48.112;8.616;2023-11-19T10:24:33;0.60;;;0.60;;
27744;SDS011;61387;48.112;8.616;2023-11-19T10:26:59;1.17;;;0.60;;
27744;SDS011;61387;48.112;8.616;2023-11-19T10:29:28;1.43;;;0.67;;
27744;SDS011;61387;48.112;8.616;2023-11-19T10:31:58;2.10;;;0.50;;
27744;SDS011;61387;48.112;8.616;2023-11-19T10:34:27;2.07;;;1.10;;
27744;SDS011;61387;48.112;8.616;2023-11-19T10:36:53;2.50;;;1.90;;
27744;SDS011;61387;48.112;8.616;2023-11-19T10:39:19;3.80;;;1.30;;
27744;SDS011;61387;48.112;8.616;2023-11-19T10:41:47;3.63;;;1.30;;
27744;SDS011;61387;48.112;8.616;2023-11-19T10:44:23;1.40;;;1.00;;
27744;SDS011;61387;48.112;8.616;2023-11-19T10:46:58;0.90;;;0.67;;
27744;SDS011;61387;48.112;8.616;2023-11-19T10:49:25;1.93;;;1.03;;
27744;SDS011;61387;48.112;8.616;2023-11-19T10:51:50;1.50;;;1.20;;
27744;SDS011;61387;48.112;8.616;2023-11-19T10:54:18;6.17;;;1.63;;
27744;SDS011;61387;48.112;8.616;2023-11-19T10:56:44;2.30;;;1.97;;
27744;SDS011;61387;48.112;8.616;2023-11-19T10:59:10;1.83;;;1.00;;
27744;SDS011;61387;48.112;8.616;2023-11-19T11:01:43;1.33;;;0.73;;
27744;SDS011;61387;48.112;8.616;2023-11-19T11:04:19;0.97;;;0.60;;
27744;SDS011;61387;48.112;8.616;2023-11-19T11:06:48;1.57;;;1.47;;
27744;SDS011;61387;48.112;8.616;2023-11-19T11:09:15;1.27;;;0.70;;
27744;SDS011;61387;48.112;8.616;2023-11-19T11:11:41;0.67;;;0.33;;
27744;SDS011;61387;48.112;8.616;2023-11-19T11:14:12;0.83;;;0.50;;
27744;SDS011;61387;48.112;8.616;2023-11-19T11:16:44;4.57;;;2.23;;
27744;SDS011;61387;48.112;8.616;2023-11-19T11:19:15;2.80;;;1.63;;
27744;SDS011;61387;48.112;8.616;2023-11-19T11:21:43;1.17;;;0.57;;
27744;SDS011;61387;48.112;8.616;2023-11-19T11:24:20;1.50;;;0.80;;
27744;SDS011;61387;48.112;8.616;2023-11-19T11:32:45;14.70;;;11.97;;
27744;SDS011;61387;48.112;8.616;2023-11-19T11:35:34;5.23;;;4.47;;
27744;SDS011;61387;48.112;8.616;2023-11-19T11:38:21;1.67;;;1.27;;
27744;SDS011;61387;48.112;8.616;2023-11-19T11:43:50;9.03;;;4.20;;
27744;SDS011;61387;48.112;8.616;2023-11-19T11:48:59;3.20;;;1.53;;
27744;SDS011;61387;48.112;8.616;2023-11-19T11:52:14;0.80;;;0.57;;
27744;SDS011;61387;48.112;8.616;2023-11-19T12:02:11;3.07;;;1.50;;
27744;SDS011;61387;48.112;8.616;2023-11-19T12:04:39;2.07;;;0.73;;
27744;SDS011;61387;48.112;8.616;2023-11-19T12:07:10;1.27;;;0.80;;
27744;SDS011;61387;48.112;8.616;2023-11-19T12:09:41;1.20;;;0.93;;
27744;SDS011;61387;48.112;8.616;2023-11-19T12:12:12;24.87;;;18.47;;
27744;SDS011;61387;48.112;8.616;2023-11-19T12:20:40;0.87;;;0.60;;
27744;SDS011;61387;48.112;8.616;2023-11-19T12:22:48;0.70;;;0.40;;
27744;SDS011;61387;48.112;8.616;2023-11-19T12:25:14;2.73;;;0.50;;
27744;SDS011;61387;48.112;8.616;2023-11-19T12:27:47;0.40;;;0.30;;
27744;SDS011;61387;48.112;8.616;2023-11-19T12:30:24;1.30;;;0.70;;
27744;SDS011;61387;48.112;8.616;2023-11-19T12:32:52;0.77;;;0.60;;
27744;SDS011;61387;48.112;8.616;2023-11-19T12:35:18;0.50;;;0.30;;
27744;SDS011;61387;48.112;8.616;2023-11-19T12:40:14;0.93;;;0.43;;
27744;SDS011;61387;48.112;8.616;2023-11-19T12:42:47;0.27;;;0.23;;
27744;SDS011;61387;48.112;8.616;2023-11-19T12:45:14;0.30;;;0.30;;
27744;SDS011;61387;48.112;8.616;2023-11-19T12:47:41;4.57;;;1.00;;
27744;SDS011;61387;48.112;8.616;2023-11-19T12:50:07;2.47;;;1.33;;
27744;SDS011;61387;48.112;8.616;2023-11-19T12:52:34;1.80;;;0.70;;
27744;SDS011;61387;48.112;8.616;2023-11-19T12:55:01;9.23;;;8.63;;
27744;SDS011;61387;48.112;8.616;2023-11-19T12:57:38;1.00;;;0.67;;
27744;SDS011;61387;48.112;8.616;2023-11-19T13:00:08;0.30;;;0.30;;
27744;SDS011;61387;48.112;8.616;2023-11-19T13:02:47;0.43;;;0.40;;
27744;SDS011;61387;48.112;8.616;2023-11-19T13:05:33;1.50;;;0.30;;
27744;SDS011;61387;48.112;8.616;2023-11-19T13:07:59;0.20;;;0.20;;
27744;SDS011;61387;48.112;8.616;2023-11-19T13:10:25;0.60;;;0.40;;
27744;SDS011;61387;48.112;8.616;2023-11-19T13:15:30;0.40;;;0.20;;
27744;SDS011;61387;48.112;8.616;2023-11-19T13:17:57;0.53;;;0.10;;
27744;SDS011;61387;48.112;8.616;2023-11-19T13:20:23;2.90;;;0.80;;
27744;SDS011;61387;48.112;8.616;2023-11-19T13:22:58;0.73;;;0.40;;
27744;SDS011;61387;48.112;8.616;2023-11-19T13:25:28;0.93;;;0.47;;
27744;SDS011;61387;48.112;8.616;2023-11-19T13:27:54;0.77;;;0.30;;
27744;SDS011;61387;48.112;8.616;2023-11-19T13:30:24;2.50;;;0.67;;
27744;SDS011;61387;48.112;8.616;2023-11-19T13:32:50;1.13;;;0.63;;
27744;SDS011;61387;48.112;8.616;2023-11-19T13:35:17;1.57;;;0.87;;
27744;SDS011;61387;48.112;8.616;2023-11-19T13:37:43;1.03;;;0.73;;
27744;SDS011;61387;48.112;8.616;2023-11-19T13:40:10;0.57;;;0.40;;
27744;SDS011;61387;48.112;8.616;2023-11-19T13:42:38;0.80;;;0.80;;
27744;SDS011;61387;48.112;8.616;2023-11-19T13:47:36;1.47;;;1.00;;
27744;SDS011;61387;48.112;8.616;2023-11-19T13:50:05;1.40;;;0.47;;
27744;SDS011;61387;48.112;8.616;2023-11-19T13:52:31;2.50;;;1.27;;
27744;SDS011;61387;48.112;8.616;2023-11-19T13:54:57;1.53;;;0.50;;
27744;SDS011;61387;48.112;8.616;2023-11-19T13:57:22;1.85;;;0.80;;
27744;SDS011;61387;48.112;8.616;2023-11-19T13:59:48;1.20;;;0.40;;
27744;SDS011;61387;48.112;8.616;2023-11-19T14:02:14;1.47;;;0.50;;
27744;SDS011;61387;48.112;8.616;2023-11-19T14:04:40;1.77;;;0.57;;
27744;SDS011;61387;48.112;8.616;2023-11-19T14:07:06;0.80;;;0.50;;
27744;SDS011;61387;48.112;8.616;2023-11-19T14:09:32;0.77;;;0.50;;
27744;SDS011;61387;48.112;8.616;2023-11-19T14:11:58;0.47;;;0.30;;
27744;SDS011;61387;48.112;8.616;2023-11-19T14:14:24;1.00;;;0.40;;
27744;SDS011;61387;48.112;8.616;2023-11-19T14:16:49;0.70;;;0.60;;
27744;SDS011;61387;48.112;8.616;2023-11-19T14:19:15;0.77;;;0.47;;
27744;SDS011;61387;48.112;8.616;2023-11-19T14:21:41;1.80;;;0.80;;
27744;SDS011;61387;48.112;8.616;2023-11-19T14:24:06;1.53;;;0.70;;
27744;SDS011;61387;48.112;8.616;2023-11-19T14:26:32;3.77;;;1.30;;
27744;SDS011;61387;48.112;8.616;2023-11-19T14:28:58;1.47;;;0.77;;
27744;SDS011;61387;48.112;8.616;2023-11-19T14:31:27;1.30;;;0.57;;
27744;SDS011;61387;48.112;8.616;2023-11-19T14:33:53;1.67;;;0.83;;
27744;SDS011;61387;48.112;8.616;2023-11-19T14:36:19;1.10;;;0.70;;
27744;SDS011;61387;48.112;8.616;2023-11-19T14:38:45;1.67;;;0.67;;
27744;SDS011;61387;48.112;8.616;2023-11-19T14:41:11;2.00;;;0.70;;
27744;SDS011;61387;48.112;8.616;2023-11-19T14:43:38;2.83;;;0.77;;
27744;SDS011;61387;48.112;8.616;2023-11-19T14:46:06;1.07;;;0.80;;
27744;SDS011;61387;48.112;8.616;2023-11-19T14:48:32;1.47;;;0.70;;
27744;SDS011;61387;48.112;8.616;2023-11-19T14:50:58;1.60;;;1.00;;
27744;SDS011;61387;48.112;8.616;2023-11-19T14:53:24;2.63;;;0.53;;
27744;SDS011;61387;48.112;8.616;2023-11-19T14:55:50;1.60;;;0.70;;
27744;SDS011;61387;48.112;8.616;2023-11-19T14:58:16;2.80;;;0.40;;
27744;SDS011;61387;48.112;8.616;2023-11-19T15:00:42;1.60;;;0.70;;
27744;SDS011;61387;48.112;8.616;2023-11-19T15:03:09;2.90;;;1.60;;
27744;SDS011;61387;48.112;8.616;2023-11-19T15:05:37;3.80;;;1.67;;
27744;SDS011;61387;48.112;8.616;2023-11-19T15:08:03;2.63;;;1.20;;
27744;SDS011;61387;48.112;8.616;2023-11-19T15:10:29;1.90;;;0.43;;
27744;SDS011;61387;48.112;8.616;2023-11-19T15:12:55;1.23;;;0.50;;
27744;SDS011;61387;48.112;8.616;2023-11-19T15:15:21;3.37;;;0.77;;
27744;SDS011;61387;48.112;8.616;2023-11-19T15:17:47;2.63;;;1.13;;
27744;SDS011;61387;48.112;8.616;2023-11-19T15:20:13;1.37;;;0.87;;